sensor_id;sensor_type;location;lat;lon;timestamp;pressure;altitude;pressure_sealevel;temperature;humidity
6224;BME280;3145;42.726;23.342;2023-06-04T00:02:23;72069.38;;;-142.70;91.26
6224;BME280;3145;42.726;23.342;2023-06-04T00:04:50;72073.41;;;-142.70;91.60
6224;BME280;3145;42.726;23.342;2023-06-04T00:07:17;72075.44;;;-142.70;91.90
6224;BME280;3145;42.726;23.342;2023-06-04T00:09:45;72073.41;;;-142.70;91.20
6224;BME280;3145;42.726;23.342;2023-06-04T00:12:12;72057.31;;;-142.70;90.46
6224;BME280;3145;42.726;23.342;2023-06-04T00:14:40;72049.25;;;-142.70;90.14
6224;BME280;3145;42.726;23.342;2023-06-04T00:17:07;72043.19;;;-142.70;89.26
6224;BME280;3145;42.726;23.342;2023-06-04T00:19:34;72045.22;;;-142.70;89.33
6224;BME280;3145;42.726;23.342;2023-06-04T00:22:01;72049.25;;;-142.70;88.31
6224;BME280;3145;42.726;23.342;2023-06-04T00:24:28;72045.22;;;-142.70;88.17
6224;BME280;3145;42.726;23.342;2023-06-04T00:26:54;72051.25;;;-142.70;88.70
6224;BME280;3145;42.726;23.342;2023-06-04T00:29:21;72057.31;;;-142.70;89.18
6224;BME280;3145;42.726;23.342;2023-06-04T00:31:49;72065.38;;;-142.70;88.81
6224;BME280;3145;42.726;23.342;2023-06-04T00:34:17;72069.38;;;-142.70;89.68
6224;BME280;3145;42.726;23.342;2023-06-04T00:36:43;72067.38;;;-142.70;90.37
6224;BME280;3145;42.726;23.342;2023-06-04T00:39:10;72071.41;;;-142.70;90.73
6224;BME280;3145;42.726;23.342;2023-06-04T00:41:37;72073.41;;;-142.70;90.92
6224;BME280;3145;42.726;23.342;2023-06-04T00:44:03;72073.41;;;-142.70;91.42
6224;BME280;3145;42.726;23.342;2023-06-04T00:46:32;72087.53;;;-142.70;91.80
6224;BME280;3145;42.726;23.342;2023-06-04T00:49:03;72093.56;;;-142.70;93.36
6224;BME280;3145;42.726;23.342;2023-06-04T00:51:31;72105.66;;;-142.70;94.47
6224;BME280;3145;42.726;23.342;2023-06-04T00:53:59;72109.69;;;-142.70;94.92
6224;BME280;3145;42.726;23.342;2023-06-04T00:56:27;72119.75;;;-142.70;95.91
6224;BME280;3145;42.726;23.342;2023-06-04T00:58:53;72115.72;;;-142.70;96.04
6224;BME280;3145;42.726;23.342;2023-06-04T01:01:26;72109.69;;;-142.70;95.68
6224;BME280;3145;42.726;23.342;2023-06-04T01:03:57;72125.78;;;-142.70;95.59
6224;BME280;3145;42.726;23.342;2023-06-04T01:06:32;72121.75;;;-142.70;95.22
6224;BME280;3145;42.726;23.342;2023-06-04T01:09:02;72125.78;;;-142.70;95.38
6224;BME280;3145;42.726;23.342;2023-06-04T01:11:31;72129.81;;;-142.70;95.28
6224;BME280;3145;42.726;23.342;2023-06-04T01:13:58;72127.81;;;-142.70;95.17
6224;BME280;3145;42.726;23.342;2023-06-04T01:16:26;72127.81;;;-142.70;95.53
6224;BME280;3145;42.726;23.342;2023-06-04T01:18:56;72121.75;;;-142.70;94.90
6224;BME280;3145;42.726;23.342;2023-06-04T01:21:28;72117.72;;;-142.70;94.87
6224;BME280;3145;42.726;23.342;2023-06-04T01:23:58;72117.72;;;-142.70;95.52
6224;BME280;3145;42.726;23.342;2023-06-04T01:26:30;72125.78;;;-142.70;95.47
6224;BME280;3145;42.726;23.342;2023-06-04T01:28:58;72131.84;;;-142.70;95.29
6224;BME280;3145;42.726;23.342;2023-06-04T01:31:26;72133.84;;;-142.70;95.68
6224;BME280;3145;42.726;23.342;2023-06-04T01:33:54;72127.81;;;-142.70;96.05
6224;BME280;3145;42.726;23.342;2023-06-04T01:36:21;72137.88;;;-142.70;95.70
6224;BME280;3145;42.726;23.342;2023-06-04T01:38:49;72145.94;;;-142.70;95.82
6224;BME280;3145;42.726;23.342;2023-06-04T01:41:16;72141.91;;;-142.70;96.01
6224;BME280;3145;42.726;23.342;2023-06-04T01:43:43;72147.94;;;-142.70;96.10
6224;BME280;3145;42.726;23.342;2023-06-04T01:46:10;72145.94;;;-142.70;96.23
6224;BME280;3145;42.726;23.342;2023-06-04T01:48:36;72156.00;;;-142.70;95.98
6224;BME280;3145;42.726;23.342;2023-06-04T01:51:04;72145.94;;;-142.70;96.60
6224;BME280;3145;42.726;23.342;2023-06-04T01:53:31;72141.91;;;-142.70;96.64
6224;BME280;3145;42.726;23.342;2023-06-04T01:55:59;72133.84;;;-142.70;96.65
6224;BME280;3145;42.726;23.342;2023-06-04T01:58:26;72135.84;;;-142.70;96.21
6224;BME280;3145;42.726;23.342;2023-06-04T02:00:54;72145.94;;;-142.70;95.63
6224;BME280;3145;42.726;23.342;2023-06-04T02:03:21;72145.94;;;-142.70;95.88
6224;BME280;3145;42.726;23.342;2023-06-04T02:05:48;72154.00;;;-142.70;96.59
6224;BME280;3145;42.726;23.342;2023-06-04T02:08:15;72170.09;;;-142.70;97.19
6224;BME280;3145;42.726;23.342;2023-06-04T02:10:45;72172.13;;;-142.70;98.23
6224;BME280;3145;42.726;23.342;2023-06-04T02:13:13;72182.19;;;-142.70;99.31
6224;BME280;3145;42.726;23.342;2023-06-04T02:15:41;72182.19;;;-142.70;100.00
6224;BME280;3145;42.726;23.342;2023-06-04T02:18:15;72194.28;;;-142.70;100.00
6224;BME280;3145;42.726;23.342;2023-06-04T02:20:43;72190.25;;;-142.70;100.00
6224;BME280;3145;42.726;23.342;2023-06-04T02:23:10;72188.22;;;-142.70;100.00
6224;BME280;3145;42.726;23.342;2023-06-04T02:25:37;72186.22;;;-142.70;100.00
6224;BME280;3145;42.726;23.342;2023-06-04T02:28:04;72182.19;;;-142.70;100.00
6224;BME280;3145;42.726;23.342;2023-06-04T02:30:32;72186.22;;;-142.70;100.00
6224;BME280;3145;42.726;23.342;2023-06-04T02:32:59;72186.22;;;-142.70;100.00
6224;BME280;3145;42.726;23.342;2023-06-04T02:35:26;72182.19;;;-142.70;100.00
6224;BME280;3145;42.726;23.342;2023-06-04T02:37:53;72176.16;;;-142.70;100.00
6224;BME280;3145;42.726;23.342;2023-06-04T02:40:21;72176.16;;;-142.70;100.00
6224;BME280;3145;42.726;23.342;2023-06-04T02:42:48;72166.06;;;-142.70;100.00
6224;BME280;3145;42.726;23.342;2023-06-04T02:45:15;72164.06;;;-142.70;100.00
6224;BME280;3145;42.726;23.342;2023-06-04T02:47:43;72158.03;;;-142.70;99.87
6224;BME280;3145;42.726;23.342;2023-06-04T02:50:11;72154.00;;;-142.70;99.73
6224;BME280;3145;42.726;23.342;2023-06-04T02:52:38;72141.91;;;-142.70;99.71
6224;BME280;3145;42.726;23.342;2023-06-04T02:55:06;72137.88;;;-142.70;98.97
6224;BME280;3145;42.726;23.342;2023-06-04T02:57:34;72141.91;;;-142.70;97.55
6224;BME280;3145;42.726;23.342;2023-06-04T03:00:01;72141.91;;;-142.70;97.49
6224;BME280;3145;42.726;23.342;2023-06-04T03:02:33;72127.81;;;-142.70;97.74
6224;BME280;3145;42.726;23.342;2023-06-04T03:05:01;72133.84;;;-142.70;97.12
6224;BME280;3145;42.726;23.342;2023-06-04T03:07:29;72125.78;;;-142.70;96.74
6224;BME280;3145;42.726;23.342;2023-06-04T03:09:56;72117.72;;;-142.70;96.86
6224;BME280;3145;42.726;23.342;2023-06-04T03:12:23;72109.69;;;-142.70;96.61
6224;BME280;3145;42.726;23.342;2023-06-04T03:14:50;72105.66;;;-142.70;93.72
6224;BME280;3145;42.726;23.342;2023-06-04T03:17:16;72101.63;;;-142.70;91.77
6224;BME280;3145;42.726;23.342;2023-06-04T03:19:43;72109.69;;;-142.70;91.85
6224;BME280;3145;42.726;23.342;2023-06-04T03:22:11;72109.69;;;-142.70;91.63
6224;BME280;3145;42.726;23.342;2023-06-04T03:24:40;72107.66;;;-142.70;91.83
6224;BME280;3145;42.726;23.342;2023-06-04T03:27:08;72109.69;;;-142.70;92.17
6224;BME280;3145;42.726;23.342;2023-06-04T03:29:35;72117.72;;;-142.70;93.73
6224;BME280;3145;42.726;23.342;2023-06-04T03:32:03;72125.78;;;-142.70;95.85
6224;BME280;3145;42.726;23.342;2023-06-04T03:34:30;72131.84;;;-142.70;96.54
6224;BME280;3145;42.726;23.342;2023-06-04T03:36:57;72135.84;;;-142.70;96.52
6224;BME280;3145;42.726;23.342;2023-06-04T03:39:26;72141.91;;;-142.70;97.03
6224;BME280;3145;42.726;23.342;2023-06-04T03:41:53;72137.88;;;-142.70;96.77
6224;BME280;3145;42.726;23.342;2023-06-04T03:44:20;72137.88;;;-142.70;96.44
6224;BME280;3145;42.726;23.342;2023-06-04T03:46:47;72141.91;;;-142.70;96.16
6224;BME280;3145;42.726;23.342;2023-06-04T03:49:14;72151.97;;;-142.70;96.51
6224;BME280;3145;42.726;23.342;2023-06-04T03:51:42;72170.09;;;-142.70;97.02
6224;BME280;3145;42.726;23.342;2023-06-04T03:54:09;72174.13;;;-142.70;98.16
6224;BME280;3145;42.726;23.342;2023-06-04T03:56:38;72184.19;;;-142.70;98.92
6224;BME280;3145;42.726;23.342;2023-06-04T03:59:05;72186.22;;;-142.70;99.98
6224;BME280;3145;42.726;23.342;2023-06-04T04:01:31;72174.13;;;-142.70;100.00
6224;BME280;3145;42.726;23.342;2023-06-04T04:03:58;72172.13;;;-142.70;100.00
6224;BME280;3145;42.726;23.342;2023-06-04T04:06:25;72170.09;;;-142.70;100.00
6224;BME280;3145;42.726;23.342;2023-06-04T04:08:52;72174.13;;;-142.70;100.00
6224;BME280;3145;42.726;23.342;2023-06-04T04:11:18;72170.09;;;-142.70;100.00
6224;BME280;3145;42.726;23.342;2023-06-04T04:13:46;72174.13;;;-142.70;100.00
6224;BME280;3145;42.726;23.342;2023-06-04T04:16:13;72174.13;;;-142.70;100.00
6224;BME280;3145;42.726;23.342;2023-06-04T04:18:41;72168.09;;;-142.70;100.00
6224;BME280;3145;42.726;23.342;2023-06-04T04:21:09;72172.13;;;-142.70;100.00
6224;BME280;3145;42.726;23.342;2023-06-04T04:23:37;72168.09;;;-142.70;100.00
6224;BME280;3145;42.726;23.342;2023-06-04T04:26:05;72164.06;;;-142.70;100.00
6224;BME280;3145;42.726;23.342;2023-06-04T04:28:32;72166.06;;;-142.70;100.00
6224;BME280;3145;42.726;23.342;2023-06-04T04:31:01;72174.13;;;-142.70;100.00
6224;BME280;3145;42.726;23.342;2023-06-04T04:33:28;72182.19;;;-142.70;100.00
6224;BME280;3145;42.726;23.342;2023-06-04T04:35:58;72182.19;;;-142.70;100.00
6224;BME280;3145;42.726;23.342;2023-06-04T04:38:25;72172.13;;;-142.70;100.00
6224;BME280;3145;42.726;23.342;2023-06-04T04:40:54;72170.09;;;-142.70;100.00
6224;BME280;3145;42.726;23.342;2023-06-04T04:43:29;72174.13;;;-142.70;100.00
6224;BME280;3145;42.726;23.342;2023-06-04T04:45:55;72172.13;;;-142.70;100.00
6224;BME280;3145;42.726;23.342;2023-06-04T04:48:24;72166.06;;;-142.70;100.00
6224;BME280;3145;42.726;23.342;2023-06-04T04:50:51;72158.03;;;-142.70;100.00
6224;BME280;3145;42.726;23.342;2023-06-04T04:53:17;72151.97;;;-142.70;100.00
6224;BME280;3145;42.726;23.342;2023-06-04T04:55:44;72154.00;;;-142.70;99.68
6224;BME280;3145;42.726;23.342;2023-06-04T04:58:11;72149.97;;;-142.70;98.23
6224;BME280;3145;42.726;23.342;2023-06-04T05:00:38;72141.91;;;-142.70;97.83
6224;BME280;3145;42.726;23.342;2023-06-04T05:03:05;72139.88;;;-142.70;96.39
6224;BME280;3145;42.726;23.342;2023-06-04T05:05:33;72139.88;;;-142.70;96.12
6224;BME280;3145;42.726;23.342;2023-06-04T05:08:00;72137.88;;;-142.70;95.59
6224;BME280;3145;42.726;23.342;2023-06-04T05:10:27;72135.84;;;-142.70;95.53
6224;BME280;3145;42.726;23.342;2023-06-04T05:12:54;72137.88;;;-142.70;95.09
6224;BME280;3145;42.726;23.342;2023-06-04T05:15:21;72137.88;;;-142.70;95.25
6224;BME280;3145;42.726;23.342;2023-06-04T05:17:49;72133.84;;;-142.70;94.23
6224;BME280;3145;42.726;23.342;2023-06-04T05:20:17;72135.84;;;-142.70;93.49
6224;BME280;3145;42.726;23.342;2023-06-04T05:22:47;72125.78;;;-142.70;91.63
6224;BME280;3145;42.726;23.342;2023-06-04T05:25:14;72129.81;;;-142.70;92.75
6224;BME280;3145;42.726;23.342;2023-06-04T05:27:41;72121.75;;;-142.70;92.45
6224;BME280;3145;42.726;23.342;2023-06-04T05:30:09;72119.75;;;-142.70;91.17
6224;BME280;3145;42.726;23.342;2023-06-04T05:32:36;72125.78;;;-142.70;89.72
6224;BME280;3145;42.726;23.342;2023-06-04T05:35:06;72117.72;;;-142.70;88.60
6224;BME280;3145;42.726;23.342;2023-06-04T05:37:34;72129.81;;;-142.70;88.10
6224;BME280;3145;42.726;23.342;2023-06-04T05:40:02;72117.72;;;-142.70;89.84
6224;BME280;3145;42.726;23.342;2023-06-04T05:42:30;72119.75;;;-142.70;89.67
6224;BME280;3145;42.726;23.342;2023-06-04T05:44:56;72121.75;;;-142.70;89.74
6224;BME280;3145;42.726;23.342;2023-06-04T05:47:23;72109.69;;;-142.70;90.18
6224;BME280;3145;42.726;23.342;2023-06-04T05:49:50;72121.75;;;-142.70;88.20
6224;BME280;3145;42.726;23.342;2023-06-04T05:52:16;72113.69;;;-142.70;87.31
6224;BME280;3145;42.726;23.342;2023-06-04T05:54:43;72121.75;;;-142.70;87.17
6224;BME280;3145;42.726;23.342;2023-06-04T05:57:12;72105.66;;;-142.70;86.92
6224;BME280;3145;42.726;23.342;2023-06-04T05:59:38;72117.72;;;-142.70;86.43
6224;BME280;3145;42.726;23.342;2023-06-04T06:02:05;72109.69;;;-142.70;86.10
6224;BME280;3145;42.726;23.342;2023-06-04T06:04:32;72119.75;;;-142.70;86.09
6224;BME280;3145;42.726;23.342;2023-06-04T06:06:59;72113.69;;;-142.70;86.56
6224;BME280;3145;42.726;23.342;2023-06-04T06:09:26;72125.78;;;-142.70;84.75
6224;BME280;3145;42.726;23.342;2023-06-04T06:11:53;72125.78;;;-142.70;84.32
6224;BME280;3145;42.726;23.342;2023-06-04T06:14:21;72127.81;;;-142.70;83.38
6224;BME280;3145;42.726;23.342;2023-06-04T06:16:48;72119.75;;;-142.70;83.04
6224;BME280;3145;42.726;23.342;2023-06-04T06:19:15;72121.75;;;-142.70;82.15
6224;BME280;3145;42.726;23.342;2023-06-04T06:21:42;72109.69;;;-142.70;82.33
6224;BME280;3145;42.726;23.342;2023-06-04T06:24:09;72111.69;;;-142.70;81.55
6224;BME280;3145;42.726;23.342;2023-06-04T06:26:36;72093.56;;;-142.70;81.09
6224;BME280;3145;42.726;23.342;2023-06-04T06:29:02;72097.59;;;-142.70;80.81
6224;BME280;3145;42.726;23.342;2023-06-04T06:31:30;72083.50;;;-142.70;81.11
6224;BME280;3145;42.726;23.342;2023-06-04T06:33:57;72077.44;;;-142.70;80.71
6224;BME280;3145;42.726;23.342;2023-06-04T06:36:24;72069.38;;;-142.70;80.50
6224;BME280;3145;42.726;23.342;2023-06-04T06:38:51;72063.34;;;-142.70;80.42
6224;BME280;3145;42.726;23.342;2023-06-04T06:41:18;72045.22;;;-142.70;79.46
6224;BME280;3145;42.726;23.342;2023-06-04T06:43:45;72027.09;;;-142.70;79.52
6224;BME280;3145;42.726;23.342;2023-06-04T06:46:11;72037.16;;;-142.70;78.31
6224;BME280;3145;42.726;23.342;2023-06-04T06:48:39;72017.03;;;-142.70;79.01
6224;BME280;3145;42.726;23.342;2023-06-04T06:51:10;72015.00;;;-142.70;78.52
6224;BME280;3145;42.726;23.342;2023-06-04T06:53:37;72004.94;;;-142.70;79.21
6224;BME280;3145;42.726;23.342;2023-06-04T06:56:04;71984.78;;;-142.70;78.33
6224;BME280;3145;42.726;23.342;2023-06-04T06:58:31;71976.75;;;-142.70;77.80
6224;BME280;3145;42.726;23.342;2023-06-04T07:00:58;72000.91;;;-142.70;77.60
6224;BME280;3145;42.726;23.342;2023-06-04T07:03:25;71988.81;;;-142.70;77.32
6224;BME280;3145;42.726;23.342;2023-06-04T07:05:54;71980.75;;;-142.70;76.67
6224;BME280;3145;42.726;23.342;2023-06-04T07:08:20;71984.78;;;-142.70;76.84
6224;BME280;3145;42.726;23.342;2023-06-04T07:10:47;71976.75;;;-142.70;77.23
6224;BME280;3145;42.726;23.342;2023-06-04T07:13:14;71950.56;;;-142.70;77.73
6224;BME280;3145;42.726;23.342;2023-06-04T07:15:41;71924.38;;;-142.70;77.68
6224;BME280;3145;42.726;23.342;2023-06-04T07:18:07;71920.34;;;-142.70;74.25
6224;BME280;3145;42.726;23.342;2023-06-04T07:20:34;71936.44;;;-142.70;73.68
6224;BME280;3145;42.726;23.342;2023-06-04T07:23:02;71928.41;;;-142.70;74.06
6224;BME280;3145;42.726;23.342;2023-06-04T07:25:29;71920.34;;;-142.70;73.66
6224;BME280;3145;42.726;23.342;2023-06-04T07:27:56;71922.34;;;-142.70;74.00
6224;BME280;3145;42.726;23.342;2023-06-04T07:30:23;71924.38;;;-142.70;74.43
6224;BME280;3145;42.726;23.342;2023-06-04T07:32:50;71928.41;;;-142.70;72.77
6224;BME280;3145;42.726;23.342;2023-06-04T07:35:17;71942.50;;;-142.70;72.72
6224;BME280;3145;42.726;23.342;2023-06-04T07:37:43;71924.38;;;-142.70;72.34
6224;BME280;3145;42.726;23.342;2023-06-04T07:40:14;71924.38;;;-142.70;71.46
6224;BME280;3145;42.726;23.342;2023-06-04T07:42:42;71908.25;;;-142.70;72.89
6224;BME280;3145;42.726;23.342;2023-06-04T07:45:09;71908.25;;;-142.70;71.31
6224;BME280;3145;42.726;23.342;2023-06-04T07:47:36;71920.34;;;-142.70;71.57
6224;BME280;3145;42.726;23.342;2023-06-04T07:50:03;71906.25;;;-142.70;71.05
6224;BME280;3145;42.726;23.342;2023-06-04T07:52:30;71888.13;;;-142.70;70.76
6224;BME280;3145;42.726;23.342;2023-06-04T07:54:57;71894.16;;;-142.70;69.11
6224;BME280;3145;42.726;23.342;2023-06-04T07:57:26;71892.16;;;-142.70;69.65
6224;BME280;3145;42.726;23.342;2023-06-04T07:59:52;71896.16;;;-142.70;71.28
6224;BME280;3145;42.726;23.342;2023-06-04T08:02:19;71880.06;;;-142.70;71.66
6224;BME280;3145;42.726;23.342;2023-06-04T08:04:46;71888.13;;;-142.70;70.11
6224;BME280;3145;42.726;23.342;2023-06-04T08:07:12;71890.13;;;-142.70;69.23
6224;BME280;3145;42.726;23.342;2023-06-04T08:09:39;71876.03;;;-142.70;69.07
6224;BME280;3145;42.726;23.342;2023-06-04T08:12:06;71880.06;;;-142.70;69.19
6224;BME280;3145;42.726;23.342;2023-06-04T08:14:35;71837.75;;;-142.70;69.22
6224;BME280;3145;42.726;23.342;2023-06-04T08:17:01;71831.72;;;-142.70;67.38
6224;BME280;3145;42.726;23.342;2023-06-04T08:19:28;71819.63;;;-142.70;67.62
6224;BME280;3145;42.726;23.342;2023-06-04T08:21:55;71821.66;;;-142.70;67.73
6224;BME280;3145;42.726;23.342;2023-06-04T08:24:22;71805.53;;;-142.70;66.95
6224;BME280;3145;42.726;23.342;2023-06-04T08:26:48;71821.66;;;-142.70;67.53
6224;BME280;3145;42.726;23.342;2023-06-04T08:29:16;71787.41;;;-142.70;66.91
6224;BME280;3145;42.726;23.342;2023-06-04T08:31:44;71779.34;;;-142.70;66.40
6224;BME280;3145;42.726;23.342;2023-06-04T08:34:11;71757.19;;;-142.70;66.72
6224;BME280;3145;42.726;23.342;2023-06-04T08:36:37;71747.13;;;-142.70;65.54
6224;BME280;3145;42.726;23.342;2023-06-04T08:39:04;71702.81;;;-142.70;65.54
6224;BME280;3145;42.726;23.342;2023-06-04T08:41:34;71779.34;;;-142.70;62.95
6224;BME280;3145;42.726;23.342;2023-06-04T08:44:05;71751.16;;;-142.70;63.93
6224;BME280;3145;42.726;23.342;2023-06-04T08:46:32;71741.09;;;-142.70;63.75
6224;BME280;3145;42.726;23.342;2023-06-04T08:49:00;71751.16;;;-142.70;61.56
6224;BME280;3145;42.726;23.342;2023-06-04T08:51:28;71751.16;;;-142.70;61.65
6224;BME280;3145;42.726;23.342;2023-06-04T08:53:55;71753.16;;;-142.70;61.92
6224;BME280;3145;42.726;23.342;2023-06-04T08:56:22;71759.22;;;-142.70;60.73
6224;BME280;3145;42.726;23.342;2023-06-04T08:58:49;71739.06;;;-142.70;61.48
6224;BME280;3145;42.726;23.342;2023-06-04T09:01:17;71724.97;;;-142.70;59.63
6224;BME280;3145;42.726;23.342;2023-06-04T09:03:44;71739.06;;;-142.70;60.12
6224;BME280;3145;42.726;23.342;2023-06-04T09:06:13;71763.25;;;-142.70;59.20
6224;BME280;3145;42.726;23.342;2023-06-04T09:08:43;71763.25;;;-142.70;59.87
6224;BME280;3145;42.726;23.342;2023-06-04T09:11:13;71751.16;;;-142.70;59.70
6224;BME280;3145;42.726;23.342;2023-06-04T09:13:41;71799.50;;;-142.70;61.02
6224;BME280;3145;42.726;23.342;2023-06-04T09:16:10;71795.47;;;-142.70;61.08
6224;BME280;3145;42.726;23.342;2023-06-04T09:18:36;71783.38;;;-142.70;61.62
6224;BME280;3145;42.726;23.342;2023-06-04T09:21:04;71759.22;;;-142.70;61.73
6224;BME280;3145;42.726;23.342;2023-06-04T09:23:34;71759.22;;;-142.70;60.56
6224;BME280;3145;42.726;23.342;2023-06-04T09:26:08;71741.09;;;-142.70;60.05
6224;BME280;3145;42.726;23.342;2023-06-04T09:28:35;71710.88;;;-142.70;60.41
6224;BME280;3145;42.726;23.342;2023-06-04T09:31:01;71724.97;;;-142.70;59.50
6224;BME280;3145;42.726;23.342;2023-06-04T09:33:28;71702.81;;;-142.70;58.65
6224;BME280;3145;42.726;23.342;2023-06-04T09:35:56;71694.75;;;-142.70;58.49
6224;BME280;3145;42.726;23.342;2023-06-04T09:38:23;71686.72;;;-142.70;58.24
6224;BME280;3145;42.726;23.342;2023-06-04T09:40:51;71714.91;;;-142.70;57.16
6224;BME280;3145;42.726;23.342;2023-06-04T09:43:21;71704.84;;;-142.70;57.57
6224;BME280;3145;42.726;23.342;2023-06-04T09:45:49;71718.94;;;-142.70;57.71
6224;BME280;3145;42.726;23.342;2023-06-04T09:48:19;71688.72;;;-142.70;58.84
6224;BME280;3145;42.726;23.342;2023-06-04T09:50:46;71684.69;;;-142.70;57.74
6224;BME280;3145;42.726;23.342;2023-06-04T09:53:13;71682.69;;;-142.70;58.07
6224;BME280;3145;42.726;23.342;2023-06-04T09:55:41;71662.53;;;-142.70;57.86
6224;BME280;3145;42.726;23.342;2023-06-04T09:58:10;71660.53;;;-142.70;56.59
6224;BME280;3145;42.726;23.342;2023-06-04T10:00:37;71646.44;;;-142.70;55.96
6224;BME280;3145;42.726;23.342;2023-06-04T10:03:05;71630.31;;;-142.70;56.03
6224;BME280;3145;42.726;23.342;2023-06-04T10:05:33;71602.13;;;-142.70;55.97
6224;BME280;3145;42.726;23.342;2023-06-04T10:08:03;71646.44;;;-142.70;55.97
6224;BME280;3145;42.726;23.342;2023-06-04T10:10:34;71608.16;;;-142.70;55.62
6224;BME280;3145;42.726;23.342;2023-06-04T10:13:04;71654.47;;;-142.70;54.36
6224;BME280;3145;42.726;23.342;2023-06-04T10:15:35;71638.38;;;-142.70;54.61
6224;BME280;3145;42.726;23.342;2023-06-04T10:18:02;71622.25;;;-142.70;54.15
6224;BME280;3145;42.726;23.342;2023-06-04T10:20:30;71606.16;;;-142.70;54.58
6224;BME280;3145;42.726;23.342;2023-06-04T10:22:58;71598.09;;;-142.70;52.86
6224;BME280;3145;42.726;23.342;2023-06-04T10:25:26;71610.19;;;-142.70;52.07
6224;BME280;3145;42.726;23.342;2023-06-04T10:27:54;71565.88;;;-142.70;53.05
6224;BME280;3145;42.726;23.342;2023-06-04T10:30:21;71602.13;;;-142.70;52.43
6224;BME280;3145;42.726;23.342;2023-06-04T10:32:50;71579.97;;;-142.70;52.71
6224;BME280;3145;42.726;23.342;2023-06-04T10:35:16;71565.88;;;-142.70;51.17
6224;BME280;3145;42.726;23.342;2023-06-04T10:37:43;71511.50;;;-142.70;50.58
6224;BME280;3145;42.726;23.342;2023-06-04T10:40:13;71529.63;;;-142.70;49.38
6224;BME280;3145;42.726;23.342;2023-06-04T10:42:41;71541.69;;;-142.70;50.25
6224;BME280;3145;42.726;23.342;2023-06-04T10:45:09;71555.81;;;-142.70;50.06
6224;BME280;3145;42.726;23.342;2023-06-04T10:47:37;71573.94;;;-142.70;49.38
6224;BME280;3145;42.726;23.342;2023-06-04T10:50:09;71586.00;;;-142.70;50.78
6224;BME280;3145;42.726;23.342;2023-06-04T10:52:36;71569.91;;;-142.70;50.18
6224;BME280;3145;42.726;23.342;2023-06-04T10:55:04;71535.66;;;-142.70;50.37
6224;BME280;3145;42.726;23.342;2023-06-04T10:57:32;71571.91;;;-142.70;49.55
6224;BME280;3145;42.726;23.342;2023-06-04T11:00:00;71537.66;;;-142.70;51.18
6224;BME280;3145;42.726;23.342;2023-06-04T11:02:30;71632.31;;;-142.70;50.79
6224;BME280;3145;42.726;23.342;2023-06-04T11:05:00;71598.09;;;-142.70;51.65
6224;BME280;3145;42.726;23.342;2023-06-04T11:07:42;71618.22;;;-142.70;51.35
6224;BME280;3145;42.726;23.342;2023-06-04T11:10:10;71614.19;;;-142.70;51.79
6224;BME280;3145;42.726;23.342;2023-06-04T11:12:44;71586.00;;;-142.70;53.06
6224;BME280;3145;42.726;23.342;2023-06-04T11:15:12;71553.78;;;-142.70;50.92
6224;BME280;3145;42.726;23.342;2023-06-04T11:17:51;71545.72;;;-142.70;51.12
6224;BME280;3145;42.726;23.342;2023-06-04T11:20:18;71586.00;;;-142.70;50.74
6224;BME280;3145;42.726;23.342;2023-06-04T11:22:52;71610.19;;;-142.70;50.73
6224;BME280;3145;42.726;23.342;2023-06-04T11:25:19;71573.94;;;-142.70;50.69
6224;BME280;3145;42.726;23.342;2023-06-04T11:27:47;71588.03;;;-142.70;49.27
6224;BME280;3145;42.726;23.342;2023-06-04T11:30:14;71618.22;;;-142.70;50.26
6224;BME280;3145;42.726;23.342;2023-06-04T11:32:41;71648.44;;;-142.70;49.64
6224;BME280;3145;42.726;23.342;2023-06-04T11:35:09;71614.19;;;-142.70;49.98
6224;BME280;3145;42.726;23.342;2023-06-04T11:37:37;71632.31;;;-142.70;50.95
6224;BME280;3145;42.726;23.342;2023-06-04T11:40:15;71598.09;;;-142.70;50.88
6224;BME280;3145;42.726;23.342;2023-06-04T11:42:42;71602.13;;;-142.70;50.06
6224;BME280;3145;42.726;23.342;2023-06-04T11:45:10;71614.19;;;-142.70;51.45
6224;BME280;3145;42.726;23.342;2023-06-04T11:47:37;71628.31;;;-142.70;50.57
6224;BME280;3145;42.726;23.342;2023-06-04T11:50:04;71630.31;;;-142.70;51.56
6224;BME280;3145;42.726;23.342;2023-06-04T11:52:31;71648.44;;;-142.70;52.78
6224;BME280;3145;42.726;23.342;2023-06-04T11:54:58;71672.59;;;-142.70;54.42
6224;BME280;3145;42.726;23.342;2023-06-04T11:57:26;71662.53;;;-142.70;54.97
6224;BME280;3145;42.726;23.342;2023-06-04T11:59:54;71672.59;;;-142.70;53.70
6224;BME280;3145;42.726;23.342;2023-06-04T12:02:20;71682.69;;;-142.70;53.86
6224;BME280;3145;42.726;23.342;2023-06-04T12:04:47;71688.72;;;-142.70;54.77
6224;BME280;3145;42.726;23.342;2023-06-04T12:07:19;71674.63;;;-142.70;53.48
6224;BME280;3145;42.726;23.342;2023-06-04T12:09:49;71670.59;;;-142.70;52.79
6224;BME280;3145;42.726;23.342;2023-06-04T12:12:21;71702.81;;;-142.70;53.22
6224;BME280;3145;42.726;23.342;2023-06-04T12:14:57;71722.97;;;-142.70;53.55
6224;BME280;3145;42.726;23.342;2023-06-04T12:17:24;71741.09;;;-142.70;54.45
6224;BME280;3145;42.726;23.342;2023-06-04T12:19:51;71714.91;;;-142.70;54.26
6224;BME280;3145;42.726;23.342;2023-06-04T12:22:18;71702.81;;;-142.70;55.08
6224;BME280;3145;42.726;23.342;2023-06-04T12:24:47;71712.88;;;-142.70;53.36
6224;BME280;3145;42.726;23.342;2023-06-04T12:27:15;71706.84;;;-142.70;53.86
6224;BME280;3145;42.726;23.342;2023-06-04T12:29:42;71682.69;;;-142.70;54.38
6224;BME280;3145;42.726;23.342;2023-06-04T12:32:10;71696.78;;;-142.70;52.65
6224;BME280;3145;42.726;23.342;2023-06-04T12:34:37;71704.84;;;-142.70;53.14
6224;BME280;3145;42.726;23.342;2023-06-04T12:37:05;71698.78;;;-142.70;54.64
6224;BME280;3145;42.726;23.342;2023-06-04T12:39:33;71700.81;;;-142.70;54.52
6224;BME280;3145;42.726;23.342;2023-06-04T12:41:59;71714.91;;;-142.70;54.06
6224;BME280;3145;42.726;23.342;2023-06-04T12:44:26;71714.91;;;-142.70;54.29
6224;BME280;3145;42.726;23.342;2023-06-04T12:46:53;71698.78;;;-142.70;54.01
6224;BME280;3145;42.726;23.342;2023-06-04T12:49:21;71686.72;;;-142.70;54.61
6224;BME280;3145;42.726;23.342;2023-06-04T12:51:48;71678.66;;;-142.70;54.45